sensor_id;sensor_type;location;lat;lon;timestamp;pressure;altitude;pressure_sealevel;temperature;humidity
3917;BME280;1973;50.518;7.318;2022-09-17T00:00:41;100558.81;;;12.22;100.00
3917;BME280;1973;50.518;7.318;2022-09-17T00:03:08;100550.53;;;12.22;100.00
3917;BME280;1973;50.518;7.318;2022-09-17T00:05:36;100548.63;;;12.22;100.00
3917;BME280;1973;50.518;7.318;2022-09-17T00:08:06;100552.22;;;12.23;100.00
3917;BME280;1973;50.518;7.318;2022-09-17T00:10:38;100556.03;;;12.22;100.00
3917;BME280;1973;50.518;7.318;2022-09-17T00:13:05;100555.81;;;12.23;100.00
3917;BME280;1973;50.518;7.318;2022-09-17T00:15:31;100559.19;;;12.25;100.00
3917;BME280;1973;50.518;7.318;2022-09-17T00:17:58;100553.44;;;12.27;100.00
3917;BME280;1973;50.518;7.318;2022-09-17T00:20:25;100555.09;;;12.28;100.00
3917;BME280;1973;50.518;7.318;2022-09-17T00:22:52;100554.03;;;12.29;100.00
3917;BME280;1973;50.518;7.318;2022-09-17T00:25:19;100551.50;;;12.27;100.00
3917;BME280;1973;50.518;7.318;2022-09-17T00:27:45;100552.34;;;12.28;100.00
3917;BME280;1973;50.518;7.318;2022-09-17T00:30:12;100558.97;;;12.27;100.00
3917;BME280;1973;50.518;7.318;2022-09-17T00:32:39;100552.13;;;12.29;100.00
3917;BME280;1973;50.518;7.318;2022-09-17T00:35:06;100555.47;;;12.31;100.00
3917;BME280;1973;50.518;7.318;2022-09-17T00:37:32;100558.88;;;12.33;100.00
3917;BME280;1973;50.518;7.318;2022-09-17T00:39:59;100553.94;;;12.35;100.00
3917;BME280;1973;50.518;7.318;2022-09-17T00:42:25;100555.84;;;12.35;100.00
3917;BME280;1973;50.518;7.318;2022-09-17T00:44:54;100560.31;;;12.36;100.00
3917;BME280;1973;50.518;7.318;2022-09-17T00:47:27;100560.94;;;12.38;100.00
3917;BME280;1973;50.518;7.318;2022-09-17T00:50:00;100560.47;;;12.41;100.00
3917;BME280;1973;50.518;7.318;2022-09-17T00:52:31;100560.22;;;12.42;100.00
3917;BME280;1973;50.518;7.318;2022-09-17T00:55:06;100560.00;;;12.44;100.00
3917;BME280;1973;50.518;7.318;2022-09-17T00:57:35;100553.84;;;12.42;100.00
3917;BME280;1973;50.518;7.318;2022-09-17T01:00:04;100548.94;;;12.44;100.00
3917;BME280;1973;50.518;7.318;2022-09-17T01:02:31;100561.69;;;12.45;100.00
3917;BME280;1973;50.518;7.318;2022-09-17T01:04:57;100562.28;;;12.47;100.00
3917;BME280;1973;50.518;7.318;2022-09-17T01:18:46;100561.22;;;12.48;100.00
3917;BME280;1973;50.518;7.318;2022-09-17T01:21:28;100562.91;;;12.49;100.00
3917;BME280;1973;50.518;7.318;2022-09-17T01:32:41;100575.59;;;12.50;100.00
3917;BME280;1973;50.518;7.318;2022-09-17T01:40:57;100582.81;;;12.51;100.00
3917;BME280;1973;50.518;7.318;2022-09-17T01:46:33;100580.28;;;12.49;100.00
3917;BME280;1973;50.518;7.318;2022-09-17T01:49:04;100579.22;;;12.50;100.00
3917;BME280;1973;50.518;7.318;2022-09-17T01:51:38;100576.09;;;12.47;100.00
3917;BME280;1973;50.518;7.318;2022-09-17T01:54:23;100575.50;;;12.45;100.00
3917;BME280;1973;50.518;7.318;2022-09-17T01:56:55;100583.31;;;12.48;100.00
3917;BME280;1973;50.518;7.318;2022-09-17T01:59:32;100577.53;;;12.49;100.00
3917;BME280;1973;50.518;7.318;2022-09-17T02:02:09;100580.91;;;12.51;100.00
3917;BME280;1973;50.518;7.318;2022-09-17T02:04:54;100573.22;;;12.53;100.00
3917;BME280;1973;50.518;7.318;2022-09-17T02:07:23;100578.53;;;12.55;100.00
3917;BME280;1973;50.518;7.318;2022-09-17T02:09:57;100579.13;;;12.57;100.00
3917;BME280;1973;50.518;7.318;2022-09-17T02:12:47;100575.28;;;12.58;100.00
3917;BME280;1973;50.518;7.318;2022-09-17T02:15:20;100574.22;;;12.59;100.00
3917;BME280;1973;50.518;7.318;2022-09-17T02:20:46;100575.06;;;12.59;100.00
3917;BME280;1973;50.518;7.318;2022-09-17T02:23:18;100579.97;;;12.57;100.00
3917;BME280;1973;50.518;7.318;2022-09-17T02:25:55;100583.56;;;12.58;100.00
3917;BME280;1973;50.518;7.318;2022-09-17T02:28:45;100573.97;;;12.60;100.00
3917;BME280;1973;50.518;7.318;2022-09-17T02:31:13;100577.56;;;12.61;100.00
3917;BME280;1973;50.518;7.318;2022-09-17T02:33:40;100579.28;;;12.62;100.00
3917;BME280;1973;50.518;7.318;2022-09-17T02:36:09;100576.28;;;12.63;100.00
3917;BME280;1973;50.518;7.318;2022-09-17T02:38:39;100581.56;;;12.65;100.00
3917;BME280;1973;50.518;7.318;2022-09-17T02:41:17;100577.47;;;12.67;100.00
3917;BME280;1973;50.518;7.318;2022-09-17T02:49:18;100581.81;;;12.63;100.00
3917;BME280;1973;50.518;7.318;2022-09-17T02:54:37;100584.78;;;12.62;100.00
3917;BME280;1973;50.518;7.318;2022-09-17T02:57:59;100583.94;;;12.61;100.00
3917;BME280;1973;50.518;7.318;2022-09-17T03:00:13;100584.41;;;12.58;100.00
3917;BME280;1973;50.518;7.318;2022-09-17T03:02:43;100581.88;;;12.57;100.00
3917;BME280;1973;50.518;7.318;2022-09-17T03:05:13;100586.19;;;12.53;100.00
3917;BME280;1973;50.518;7.318;2022-09-17T03:07:42;100582.34;;;12.54;100.00
3917;BME280;1973;50.518;7.318;2022-09-17T03:10:08;100590.88;;;12.52;100.00
3917;BME280;1973;50.518;7.318;2022-09-17T03:12:35;100590.63;;;12.54;100.00
3917;BME280;1973;50.518;7.318;2022-09-17T03:15:02;100581.97;;;12.50;100.00
3917;BME280;1973;50.518;7.318;2022-09-17T03:17:29;100597.94;;;12.48;100.00
3917;BME280;1973;50.518;7.318;2022-09-17T03:19:55;100587.97;;;12.47;100.00
3917;BME280;1973;50.518;7.318;2022-09-17T03:22:22;100598.63;;;12.44;100.00
3917;BME280;1973;50.518;7.318;2022-09-17T03:24:48;100584.84;;;12.44;100.00
3917;BME280;1973;50.518;7.318;2022-09-17T03:27:15;100584.47;;;12.40;100.00
3917;BME280;1973;50.518;7.318;2022-09-17T03:29:41;100588.91;;;12.41;100.00
3917;BME280;1973;50.518;7.318;2022-09-17T03:32:07;100590.19;;;12.39;100.00
3917;BME280;1973;50.518;7.318;2022-09-17T03:34:34;100586.38;;;12.40;100.00
3917;BME280;1973;50.518;7.318;2022-09-17T03:37:01;100604.00;;;12.39;100.00
3917;BME280;1973;50.518;7.318;2022-09-17T03:39:28;100593.59;;;12.41;100.00
3917;BME280;1973;50.518;7.318;2022-09-17T03:41:55;100590.19;;;12.39;100.00
3917;BME280;1973;50.518;7.318;2022-09-17T03:44:21;100604.63;;;12.41;100.00
3917;BME280;1973;50.518;7.318;2022-09-17T03:46:49;100591.06;;;12.39;100.00
3917;BME280;1973;50.518;7.318;2022-09-17T03:49:16;100598.75;;;12.37;100.00
3917;BME280;1973;50.518;7.318;2022-09-17T03:51:42;100607.72;;;12.33;100.00
3917;BME280;1973;50.518;7.318;2022-09-17T03:54:09;100607.34;;;12.29;100.00
3917;BME280;1973;50.518;7.318;2022-09-17T03:56:36;100607.09;;;12.31;100.00
3917;BME280;1973;50.518;7.318;2022-09-17T03:59:02;100627.72;;;12.28;100.00
3917;BME280;1973;50.518;7.318;2022-09-17T04:01:29;100615.81;;;12.28;100.00
3917;BME280;1973;50.518;7.318;2022-09-17T04:03:55;100613.69;;;12.30;100.00
3917;BME280;1973;50.518;7.318;2022-09-17T04:06:21;100612.00;;;12.29;100.00
3917;BME280;1973;50.518;7.318;2022-09-17T04:08:48;100619.22;;;12.30;100.00
3917;BME280;1973;50.518;7.318;2022-09-17T04:11:14;100614.16;;;12.27;100.00
3917;BME280;1973;50.518;7.318;2022-09-17T04:13:41;100621.72;;;12.31;100.00
3917;BME280;1973;50.518;7.318;2022-09-17T04:16:07;100625.97;;;12.34;100.00
3917;BME280;1973;50.518;7.318;2022-09-17T04:18:34;100624.28;;;12.33;100.00
3917;BME280;1973;50.518;7.318;2022-09-17T04:21:00;100623.22;;;12.34;100.00
3917;BME280;1973;50.518;7.318;2022-09-17T04:23:27;100628.94;;;12.32;100.00
3917;BME280;1973;50.518;7.318;2022-09-17T04:25:53;100623.41;;;12.32;100.00
3917;BME280;1973;50.518;7.318;2022-09-17T04:28:19;100629.78;;;12.33;100.00
3917;BME280;1973;50.518;7.318;2022-09-17T04:30:47;100623.41;;;12.32;100.00
3917;BME280;1973;50.518;7.318;2022-09-17T04:33:13;100634.25;;;12.34;100.00
3917;BME280;1973;50.518;7.318;2022-09-17T04:35:40;100632.31;;;12.34;100.00
3917;BME280;1973;50.518;7.318;2022-09-17T04:38:08;100634.84;;;12.36;100.00
3917;BME280;1973;50.518;7.318;2022-09-17T04:40:34;100636.53;;;12.37;100.00
3917;BME280;1973;50.518;7.318;2022-09-17T04:43:01;100639.50;;;12.35;100.00
3917;BME280;1973;50.518;7.318;2022-09-17T04:45:29;100635.31;;;12.33;100.00
3917;BME280;1973;50.518;7.318;2022-09-17T04:47:58;100633.63;;;12.32;100.00
3917;BME280;1973;50.518;7.318;2022-09-17T04:50:24;100644.44;;;12.33;100.00
3917;BME280;1973;50.518;7.318;2022-09-17T04:52:51;100651.41;;;12.36;100.00
3917;BME280;1973;50.518;7.318;2022-09-17T04:55:17;100649.72;;;12.35;100.00
3917;BME280;1973;50.518;7.318;2022-09-17T04:57:51;100649.72;;;12.35;100.00
3917;BME280;1973;50.518;7.318;2022-09-17T05:00:19;100650.81;;;12.34;100.00
3917;BME280;1973;50.518;7.318;2022-09-17T05:02:49;100639.78;;;12.34;100.00
3917;BME280;1973;50.518;7.318;2022-09-17T05:05:17;100647.19;;;12.33;100.00
3917;BME280;1973;50.518;7.318;2022-09-17T05:07:44;100644.66;;;12.32;100.00
3917;BME280;1973;50.518;7.318;2022-09-17T05:10:12;100640.44;;;12.29;100.00
3917;BME280;1973;50.518;7.318;2022-09-17T05:12:39;100641.31;;;12.30;100.00
3917;BME280;1973;50.518;7.318;2022-09-17T05:15:06;100657.22;;;12.28;100.00
3917;BME280;1973;50.518;7.318;2022-09-17T05:17:32;100653.88;;;12.26;100.00
3917;BME280;1973;50.518;7.318;2022-09-17T05:19:59;100659.16;;;12.27;100.00
3917;BME280;1973;50.518;7.318;2022-09-17T05:22:25;100656.63;;;12.26;100.00
3917;BME280;1973;50.518;7.318;2022-09-17T05:24:52;100652.81;;;12.27;100.00
3917;BME280;1973;50.518;7.318;2022-09-17T05:27:18;100663.84;;;12.27;100.00
3917;BME280;1973;50.518;7.318;2022-09-17T05:29:44;100674.91;;;12.27;100.00
3917;BME280;1973;50.518;7.318;2022-09-17T05:32:11;100662.75;;;12.28;100.00
3917;BME280;1973;50.518;7.318;2022-09-17T05:34:37;100665.75;;;12.26;100.00
3917;BME280;1973;50.518;7.318;2022-09-17T05:37:04;100670.81;;;12.29;100.00
3917;BME280;1973;50.518;7.318;2022-09-17T05:39:30;100681.63;;;12.31;100.00
3917;BME280;1973;50.518;7.318;2022-09-17T05:41:56;100673.97;;;12.33;100.00
3917;BME280;1973;50.518;7.318;2022-09-17T05:44:23;100675.41;;;12.35;100.00
3917;BME280;1973;50.518;7.318;2022-09-17T05:46:51;100681.31;;;12.39;100.00
3917;BME280;1973;50.518;7.318;2022-09-17T05:49:18;100685.78;;;12.40;100.00
3917;BME280;1973;50.518;7.318;2022-09-17T05:51:45;100685.94;;;12.45;100.00
3917;BME280;1973;50.518;7.318;2022-09-17T05:54:11;100692.06;;;12.47;100.00
3917;BME280;1973;50.518;7.318;2022-09-17T05:56:37;100687.53;;;12.52;100.00
3917;BME280;1973;50.518;7.318;2022-09-17T05:59:04;100686.81;;;12.57;100.00
3917;BME280;1973;50.518;7.318;2022-09-17T06:01:30;100684.69;;;12.59;100.00
3917;BME280;1973;50.518;7.318;2022-09-17T06:03:57;100689.75;;;12.62;100.00
3917;BME280;1973;50.518;7.318;2022-09-17T06:06:23;100695.88;;;12.64;100.00
3917;BME280;1973;50.518;7.318;2022-09-17T06:08:50;100696.03;;;12.69;100.00
3917;BME280;1973;50.518;7.318;2022-09-17T06:11:16;100697.63;;;12.77;100.00
3917;BME280;1973;50.518;7.318;2022-09-17T06:13:43;100695.63;;;12.84;100.00
3917;BME280;1973;50.518;7.318;2022-09-17T06:16:09;100699.38;;;12.89;100.00
3917;BME280;1973;50.518;7.318;2022-09-17T06:18:36;100704.66;;;12.91;100.00
3917;BME280;1973;50.518;7.318;2022-09-17T06:21:03;100689.56;;;12.93;100.00
3917;BME280;1973;50.518;7.318;2022-09-17T06:23:32;100697.38;;;12.96;100.00
3917;BME280;1973;50.518;7.318;2022-09-17T06:26:04;100690.06;;;13.02;100.00
3917;BME280;1973;50.518;7.318;2022-09-17T06:28:31;100699.56;;;13.06;100.00
3917;BME280;1973;50.518;7.318;2022-09-17T06:31:02;100707.78;;;13.12;100.00
3917;BME280;1973;50.518;7.318;2022-09-17T06:33:30;100701.34;;;13.19;100.00
3917;BME280;1973;50.518;7.318;2022-09-17T06:35:57;100719.16;;;13.23;100.00
3917;BME280;1973;50.518;7.318;2022-09-17T06:38:30;100704.97;;;13.31;100.00
3917;BME280;1973;50.518;7.318;2022-09-17T06:40:57;100712.19;;;13.32;100.00
3917;BME280;1973;50.518;7.318;2022-09-17T06:43:24;100717.72;;;13.32;100.00
3917;BME280;1973;50.518;7.318;2022-09-17T06:45:56;100712.34;;;13.37;100.00
3917;BME280;1973;50.518;7.318;2022-09-17T06:48:23;100713.06;;;13.44;100.00
3917;BME280;1973;50.518;7.318;2022-09-17T06:50:50;100713.19;;;13.49;100.00
3917;BME280;1973;50.518;7.318;2022-09-17T06:53:22;100717.16;;;13.53;100.00
3917;BME280;1973;50.518;7.318;2022-09-17T06:55:49;100717.31;;;13.58;100.00
3917;BME280;1973;50.518;7.318;2022-09-17T06:58:16;100717.31;;;13.58;100.00
3917;BME280;1973;50.518;7.318;2022-09-17T07:00:43;100707.47;;;13.62;100.00
3917;BME280;1973;50.518;7.318;2022-09-17T07:03:12;100713.84;;;13.62;100.00
3917;BME280;1973;50.518;7.318;2022-09-17T07:05:38;100715.28;;;13.65;100.00
3917;BME280;1973;50.518;7.318;2022-09-17T07:08:05;100711.66;;;13.64;100.00
3917;BME280;1973;50.518;7.318;2022-09-17T07:10:31;100704.84;;;13.67;100.00
3917;BME280;1973;50.518;7.318;2022-09-17T07:12:58;100703.25;;;13.71;100.00
3917;BME280;1973;50.518;7.318;2022-09-17T07:15:24;100702.16;;;13.72;100.00
3917;BME280;1973;50.518;7.318;2022-09-17T07:17:51;100708.44;;;13.79;100.00
3917;BME280;1973;50.518;7.318;2022-09-17T07:20:17;100704.72;;;13.85;100.00
3917;BME280;1973;50.518;7.318;2022-09-17T07:22:43;100701.00;;;13.91;100.00
3917;BME280;1973;50.518;7.318;2022-09-17T07:25:10;100701.13;;;13.96;100.00
3917;BME280;1973;50.518;7.318;2022-09-17T07:27:37;100701.22;;;14.01;100.00
3917;BME280;1973;50.518;7.318;2022-09-17T07:30:03;100704.97;;;14.07;100.00
3917;BME280;1973;50.518;7.318;2022-09-17T07:32:30;100712.06;;;14.14;100.00
3917;BME280;1973;50.518;7.318;2022-09-17T07:34:57;100700.38;;;14.24;100.00
3917;BME280;1973;50.518;7.318;2022-09-17T07:37:23;100702.91;;;14.26;100.00
3917;BME280;1973;50.518;7.318;2022-09-17T07:39:50;100703.78;;;14.26;100.00
3917;BME280;1973;50.518;7.318;2022-09-17T07:42:16;100709.03;;;14.28;100.00
3917;BME280;1973;50.518;7.318;2022-09-17T07:44:43;100707.97;;;14.29;100.00
3917;BME280;1973;50.518;7.318;2022-09-17T07:47:09;100712.66;;;14.28;100.00
3917;BME280;1973;50.518;7.318;2022-09-17T07:49:35;100711.47;;;14.24;100.00
3917;BME280;1973;50.518;7.318;2022-09-17T07:52:02;100710.03;;;14.22;100.00
3917;BME280;1973;50.518;7.318;2022-09-17T07:54:32;100720.63;;;14.13;100.00
3917;BME280;1973;50.518;7.318;2022-09-17T07:56:59;100717.25;;;14.11;100.00
3917;BME280;1973;50.518;7.318;2022-09-17T07:59:26;100707.03;;;14.11;100.00
3917;BME280;1973;50.518;7.318;2022-09-17T08:01:53;100725.78;;;14.09;100.00
3917;BME280;1973;50.518;7.318;2022-09-17T08:04:20;100726.03;;;14.08;100.00
3917;BME280;1973;50.518;7.318;2022-09-17T08:06:47;100723.03;;;14.21;100.00
3917;BME280;1973;50.518;7.318;2022-09-17T08:09:15;100712.44;;;14.30;100.00
3917;BME280;1973;50.518;7.318;2022-09-17T08:11:41;100725.09;;;14.37;100.00
3917;BME280;1973;50.518;7.318;2022-09-17T08:14:23;100704.97;;;14.42;100.00
3917;BME280;1973;50.518;7.318;2022-09-17T08:16:55;100724.34;;;14.42;100.00
3917;BME280;1973;50.518;7.318;2022-09-17T08:19:21;100729.19;;;14.35;100.00
3917;BME280;1973;50.518;7.318;2022-09-17T08:21:48;100725.06;;;14.26;100.00
3917;BME280;1973;50.518;7.318;2022-09-17T08:24:14;100728.91;;;14.25;100.00
3917;BME280;1973;50.518;7.318;2022-09-17T08:26:40;100721.47;;;14.25;100.00
3917;BME280;1973;50.518;7.318;2022-09-17T08:29:07;100728.78;;;14.20;100.00
3917;BME280;1973;50.518;7.318;2022-09-17T08:31:33;100737.59;;;14.17;100.00
3917;BME280;1973;50.518;7.318;2022-09-17T08:34:00;100730.34;;;14.15;100.00
3917;BME280;1973;50.518;7.318;2022-09-17T08:36:26;100739.75;;;14.14;100.00
3917;BME280;1973;50.518;7.318;2022-09-17T08:38:54;100727.00;;;14.13;100.00
3917;BME280;1973;50.518;7.318;2022-09-17T08:44:25;100722.91;;;14.28;100.00
3917;BME280;1973;50.518;7.318;2022-09-17T08:47:12;100724.09;;;14.32;100.00
3917;BME280;1973;50.518;7.318;2022-09-17T08:50:01;100732.63;;;14.30;100.00
3917;BME280;1973;50.518;7.318;2022-09-17T08:55:35;100727.03;;;14.37;100.00
3917;BME280;1973;50.518;7.318;2022-09-17T09:01:29;100731.44;;;14.49;100.00
3917;BME280;1973;50.518;7.318;2022-09-17T09:06:42;100729.50;;;14.73;100.00
3917;BME280;1973;50.518;7.318;2022-09-17T09:09:16;100737.44;;;14.81;100.00
3917;BME280;1973;50.518;7.318;2022-09-17T09:11:45;100728.72;;;14.89;100.00
3917;BME280;1973;50.518;7.318;2022-09-17T09:14:23;100746.78;;;15.03;100.00
3917;BME280;1973;50.518;7.318;2022-09-17T09:16:53;100730.06;;;15.15;100.00
3917;BME280;1973;50.518;7.318;2022-09-17T09:19:30;100733.13;;;15.30;100.00
3917;BME280;1973;50.518;7.318;2022-09-17T09:22:29;100730.69;;;15.34;100.00
3917;BME280;1973;50.518;7.318;2022-09-17T09:25:17;100721.13;;;15.41;100.00
3917;BME280;1973;50.518;7.318;2022-09-17T09:28:02;100734.88;;;15.48;100.00
3917;BME280;1973;50.518;7.318;2022-09-17T09:30:46;100728.28;;;15.66;99.44
3917;BME280;1973;50.518;7.318;2022-09-17T09:33:25;100726.53;;;15.76;92.38
3917;BME280;1973;50.518;7.318;2022-09-17T09:35:53;100721.06;;;15.81;95.37
3917;BME280;1973;50.518;7.318;2022-09-17T09:41:11;100714.47;;;16.04;87.57
3917;BME280;1973;50.518;7.318;2022-09-17T10:00:49;100732.72;;;16.33;89.05
3917;BME280;1973;50.518;7.318;2022-09-17T10:03:26;100738.97;;;16.24;86.18
3917;BME280;1973;50.518;7.318;2022-09-17T10:05:58;100730.34;;;16.42;86.22
3917;BME280;1973;50.518;7.318;2022-09-17T10:08:28;100731.31;;;16.69;84.23
3917;BME280;1973;50.518;7.318;2022-09-17T10:11:00;100717.78;;;16.78;79.02
3917;BME280;1973;50.518;7.318;2022-09-17T10:13:31;100717.19;;;16.54;78.20
3917;BME280;1973;50.518;7.318;2022-09-17T10:18:44;100727.56;;;16.42;80.75
3917;BME280;1973;50.518;7.318;2022-09-17T10:21:19;100732.63;;;16.62;73.46
3917;BME280;1973;50.518;7.318;2022-09-17T10:23:46;100710.91;;;16.80;73.49
3917;BME280;1973;50.518;7.318;2022-09-17T10:26:25;100710.22;;;17.17;66.76
3917;BME280;1973;50.518;7.318;2022-09-17T10:28:54;100705.38;;;17.34;69.62
3917;BME280;1973;50.518;7.318;2022-09-17T10:31:21;100701.34;;;17.20;70.42
3917;BME280;1973;50.518;7.318;2022-09-17T10:33:52;100711.31;;;17.16;71.24
3917;BME280;1973;50.518;7.318;2022-09-17T10:36:39;100714.97;;;17.43;63.78
3917;BME280;1973;50.518;7.318;2022-09-17T10:42:05;100688.03;;;17.22;69.19
3917;BME280;1973;50.518;7.318;2022-09-17T10:44:42;100699.28;;;17.37;67.19
3917;BME280;1973;50.518;7.318;2022-09-17T10:47:21;100693.78;;;17.42;65.47
3917;BME280;1973;50.518;7.318;2022-09-17T10:52:39;100692.25;;;17.56;60.40
3917;BME280;1973;50.518;7.318;2022-09-17T10:55:29;100699.44;;;17.52;56.70
3917;BME280;1973;50.518;7.318;2022-09-17T11:01:01;100692.94;;;17.15;57.24
3917;BME280;1973;50.518;7.318;2022-09-17T11:03:53;100687.66;;;17.40;57.58
3917;BME280;1973;50.518;7.318;2022-09-17T11:06:59;100683.34;;;17.54;60.84
3917;BME280;1973;50.518;7.318;2022-09-17T11:09:49;100680.72;;;17.69;59.31
3917;BME280;1973;50.518;7.318;2022-09-17T11:12:44;100681.94;;;17.83;57.25
3917;BME280;1973;50.518;7.318;2022-09-17T11:15:38;100676.69;;;17.87;57.70
3917;BME280;1973;50.518;7.318;2022-09-17T11:18:15;100681.59;;;17.75;60.81
3917;BME280;1973;50.518;7.318;2022-09-17T11:21:03;100682.84;;;17.57;58.69
3917;BME280;1973;50.518;7.318;2022-09-17T11:26:38;100749.09;;;16.68;82.50
3917;BME280;1973;50.518;7.318;2022-09-17T11:35:02;100720.13;;;15.59;100.00
3917;BME280;1973;50.518;7.318;2022-09-17T11:38:18;100717.00;;;15.55;96.98
3917;BME280;1973;50.518;7.318;2022-09-17T11:40:40;100709.78;;;15.88;100.00
3917;BME280;1973;50.518;7.318;2022-09-17T11:43:41;100709.00;;;16.09;100.00
3917;BME280;1973;50.518;7.318;2022-09-17T11:46:17;100697.91;;;16.26;100.00
3917;BME280;1973;50.518;7.318;2022-09-17T11:48:54;100706.72;;;16.23;100.00
3917;BME280;1973;50.518;7.318;2022-09-17T11:54:23;100694.34;;;16.90;100.00
3917;BME280;1973;50.518;7.318;2022-09-17T11:57:15;100683.88;;;17.24;96.78
3917;BME280;1973;50.518;7.318;2022-09-17T11:59:50;100683.34;;;17.54;90.55
3917;BME280;1973;50.518;7.318;2022-09-17T12:02:27;100679.22;;;17.88;93.23
3917;BME280;1973;50.518;7.318;2022-09-17T12:05:02;100680.25;;;18.19;87.83
3917;BME280;1973;50.518;7.318;2022-09-17T12:07:55;100678.91;;;18.27;77.42
3917;BME280;1973;50.518;7.318;2022-09-17T12:13:06;100671.88;;;18.61;75.10
3917;BME280;1973;50.518;7.318;2022-09-17T12:15:38;100673.09;;;18.80;72.91
3917;BME280;1973;50.518;7.318;2022-09-17T12:21:01;100623.50;;;19.13;67.06
3917;BME280;1973;50.518;7.318;2022-09-17T12:23:37;100650.28;;;19.09;58.00
3917;BME280;1973;50.518;7.318;2022-09-17T12:28:54;100641.81;;;18.78;59.88
3917;BME280;1973;50.518;7.318;2022-09-17T12:37:10;100650.03;;;18.01;61.06
3917;BME280;1973;50.518;7.318;2022-09-17T12:39:49;100646.09;;;17.92;65.24
3917;BME280;1973;50.518;7.318;2022-09-17T12:45:33;100647.19;;;17.59;63.60
3917;BME280;1973;50.518;7.318;2022-09-17T12:59:11;100671.38;;;16.57;79.82
3917;BME280;1973;50.518;7.318;2022-09-17T13:01:57;100668.53;;;16.51;81.09
3917;BME280;1973;50.518;7.318;2022-09-17T13:08:28;100664.47;;;16.21;87.03
3917;BME280;1973;50.518;7.318;2022-09-17T13:19:36;100700.28;;;15.84;100.00
3917;BME280;1973;50.518;7.318;2022-09-17T13:22:17;100695.38;;;16.07;100.00
3917;BME280;1973;50.518;7.318;2022-09-17T13:24:45;100684.66;;;16.33;100.00
3917;BME280;1973;50.518;7.318;2022-09-17T13:27:22;100682.44;;;16.73;100.00
3917;BME280;1973;50.518;7.318;2022-09-17T13:37:33;100655.00;;;17.94;96.03
3917;BME280;1973;50.518;7.318;2022-09-17T13:40:01;100664.31;;;18.15;92.19
3917;BME280;1973;50.518;7.318;2022-09-17T13:42:30;100653.34;;;18.40;91.34
3917;BME280;1973;50.518;7.318;2022-09-17T13:45:12;100649.00;;;18.59;84.79
3917;BME280;1973;50.518;7.318;2022-09-17T13:48:02;100647.97;;;18.80;84.50
3917;BME280;1973;50.518;7.318;2022-09-17T13:50:38;100642.41;;;18.80;84.59
3917;BME280;1973;50.518;7.318;2022-09-17T13:55:41;100651.19;;;18.52;82.53
3917;BME280;1973;50.518;7.318;2022-09-17T13:58:21;100645.94;;;18.14;79.99
3917;BME280;1973;50.518;7.318;2022-09-17T14:01:08;100654.09;;;17.83;79.80
3917;BME280;1973;50.518;7.318;2022-09-17T14:13:49;100662.97;;;17.22;85.69
3917;BME280;1973;50.518;7.318;2022-09-17T14:21:54;100665.47;;;17.50;85.41
3917;BME280;1973;50.518;7.318;2022-09-17T14:30:11;100668.84;;;18.26;77.99
3917;BME280;1973;50.518;7.318;2022-09-17T14:32:43;100672.19;;;18.18;73.75
3917;BME280;1973;50.518;7.318;2022-09-17T14:35:17;100668.84;;;18.26;74.94
3917;BME280;1973;50.518;7.318;2022-09-17T14:37:49;100638.53;;;18.34;71.40
3917;BME280;1973;50.518;7.318;2022-09-17T14:40:19;100669.41;;;18.23;68.20
3917;BME280;1973;50.518;7.318;2022-09-17T14:42:48;100662.09;;;18.12;65.91
3917;BME280;1973;50.518;7.318;2022-09-17T14:45:20;100671.22;;;18.02;69.90
3917;BME280;1973;50.518;7.318;2022-09-17T14:47:48;100673.09;;;17.91;70.37
3917;BME280;1973;50.518;7.318;2022-09-17T14:52:49;100669.66;;;17.79;71.23
3917;BME280;1973;50.518;7.318;2022-09-17T14:57:54;100661.56;;;17.78;71.25
3917;BME280;1973;50.518;7.318;2022-09-17T15:00:32;100664.25;;;17.99;70.87
3917;BME280;1973;50.518;7.318;2022-09-17T15:02:59;100660.47;;;18.21;70.27
3917;BME280;1973;50.518;7.318;2022-09-17T15:05:29;100659.13;;;18.28;68.33
3917;BME280;1973;50.518;7.318;2022-09-17T15:08:11;100653.47;;;18.60;61.93
3917;BME280;1973;50.518;7.318;2022-09-17T15:13:17;100642.78;;;19.29;61.87
3917;BME280;1973;50.518;7.318;2022-09-17T15:16:04;100634.19;;;19.76;58.32
3917;BME280;1973;50.518;7.318;2022-09-17T15:18:43;100633.59;;;20.05;54.38
3917;BME280;1973;50.518;7.318;2022-09-17T15:21:37;100641.38;;;20.23;50.91
3917;BME280;1973;50.518;7.318;2022-09-17T15:27:10;100628.69;;;20.61;50.70
3917;BME280;1973;50.518;7.318;2022-09-17T15:29:39;100627.53;;;20.67;51.66
3917;BME280;1973;50.518;7.318;2022-09-17T15:32:11;100626.81;;;20.46;50.36
3917;BME280;1973;50.518;7.318;2022-09-17T15:34:37;100621.75;;;20.48;50.97
3917;BME280;1973;50.518;7.318;2022-09-17T15:37:06;100636.34;;;20.25;50.60
3917;BME280;1973;50.518;7.318;2022-09-17T15:39:40;100636.97;;;19.91;49.01
3917;BME280;1973;50.518;7.318;2022-09-17T15:42:36;100635.25;;;19.25;50.61
3917;BME280;1973;50.518;7.318;2022-09-17T15:45:26;100639.91;;;18.89;52.45
3917;BME280;1973;50.518;7.318;2022-09-17T15:48:00;100637.88;;;18.64;54.64
3917;BME280;1973;50.518;7.318;2022-09-17T15:50:32;100635.50;;;18.41;56.63
3917;BME280;1973;50.518;7.318;2022-09-17T16:08:49;100711.53;;;17.09;78.13
3917;BME280;1973;50.518;7.318;2022-09-17T16:11:17;100743.09;;;16.76;83.15
3917;BME280;1973;50.518;7.318;2022-09-17T16:13:47;100727.16;;;16.33;90.82
3917;BME280;1973;50.518;7.318;2022-09-17T16:16:20;100746.22;;;15.91;92.88
3917;BME280;1973;50.518;7.318;2022-09-17T16:18:48;100742.34;;;15.59;95.75
3917;BME280;1973;50.518;7.318;2022-09-17T16:21:16;100742.75;;;15.39;98.54
3917;BME280;1973;50.518;7.318;2022-09-17T16:23:43;100760.13;;;15.06;100.00
3917;BME280;1973;50.518;7.318;2022-09-17T16:26:17;100761.38;;;14.87;100.00
3917;BME280;1973;50.518;7.318;2022-09-17T16:28:45;100775.75;;;14.73;100.00
3917;BME280;1973;50.518;7.318;2022-09-17T16:31:13;100767.25;;;14.51;100.00
3917;BME280;1973;50.518;7.318;2022-09-17T16:33:40;100748.69;;;14.40;100.00
3917;BME280;1973;50.518;7.318;2022-09-17T16:36:06;100767.19;;;14.28;100.00
3917;BME280;1973;50.518;7.318;2022-09-17T16:38:33;100770.81;;;14.17;100.00